Freeport/Grand Bahama International

Airport
ICAO code: 
MYGF
IATA Code: 
FPO
Summary
ICAO Region: 
CARSAM
Territory: 
Location: 
Freeport, Grand Bahama
Serving: 
Grand Bahama
Elevation: 
8 ft
Coordinates: 
Aerial View: 
26° 33' 19.008" N, 78° 41' 53.988" W
Airport WX: 
Tropical Revolving Storm
Metar
Observation
MYGF 011300Z 03004KT 010V070 9999 FEW020 19/17 A3020
Station
Freeport, Grand Bahama
Date/Time
2021-12-01 13:00:00
Wind direction
30°
Wind speed
04 kts
Lowest cloud amount
few clouds
Temperature
19°C
Dew point
17°C
Humidity
88%
Weather condition
n/a

Grand Bahama International Airport is a privately owned international airport in Freeport, Bahamas.

Climatology

Tropical Monsoon climate (Köppen climate classification Am)

Runways

Designator Length Width Surface Rops
6/24 3359 46 ASP Yes/Yes
Airport map: 
Aerial View: 

SKYbrary Partners:

Safety knowledge contributed by: